Time;durP1;ratioP1;P1;durP2;ratioP2;P2;SDS_P1;SDS_P2;PMS_P1;PMS_P2;Temp;Humidity;BMP_temperature;BMP_pressure;BME280_temperature;BME280_humidity;BME280_pressure;Samples;Min_cycle;Max_cycle;Signal;HPM_P1;HPM_P2
2023/08/30 00:01:37;;;;;;;2.53;0.60;;;;;;;24.25;53.25;95438.72;5083947;28;20019;-30
2023/08/30 00:04:03;;;;;;;2.53;0.70;;;;;;;24.25;53.39;95439.47;5082947;28;20023;-30
2023/08/30 00:06:28;;;;;;;3.25;0.82;;;;;;;24.34;53.23;95432.72;5073488;28;20012;-29
2023/08/30 00:08:56;;;;;;;3.28;0.70;;;;;;;24.52;52.69;95440.06;5081003;28;20177;-30
2023/08/30 00:11:21;;;;;;;1.85;0.80;;;;;;;24.63;52.25;95434.22;5081986;28;20024;-30
2023/08/30 00:13:47;;;;;;;1.13;0.75;;;;;;;24.29;53.11;95434.34;5079129;28;20027;-30
2023/08/30 00:16:14;;;;;;;3.38;0.70;;;;;;;24.44;52.60;95444.81;5080342;28;20099;-29
2023/08/30 00:18:40;;;;;;;1.05;0.60;;;;;;;24.32;52.78;95435.28;5080531;28;20031;-30
2023/08/30 00:21:07;;;;;;;1.00;0.57;;;;;;;24.32;52.93;95430.50;5079710;28;20041;-30
2023/08/30 00:23:32;;;;;;;1.50;0.50;;;;;;;24.32;52.59;95427.00;5074988;28;20078;-30
2023/08/30 00:25:58;;;;;;;1.73;0.63;;;;;;;24.30;52.80;95435.84;5084396;28;20385;-30
2023/08/30 00:28:23;;;;;;;0.82;0.50;;;;;;;24.48;52.32;95433.41;5075886;28;20567;-30
2023/08/30 00:30:55;;;;;;;0.70;0.50;;;;;;;24.45;52.51;95438.00;5082861;28;20035;-30
2023/08/30 00:33:21;;;;;;;2.07;0.60;;;;;;;24.19;52.86;95440.88;5076847;28;20024;-30
2023/08/30 00:35:46;;;;;;;3.75;0.60;;;;;;;24.41;52.37;95442.38;5081964;28;20073;-30
2023/08/30 00:38:11;;;;;;;1.35;0.70;;;;;;;24.32;52.60;95443.59;5079250;28;20031;-29
2023/08/30 00:40:40;;;;;;;2.15;0.70;;;;;;;24.27;52.32;95431.38;5079708;28;20040;-30
2023/08/30 00:43:08;;;;;;;3.08;0.80;;;;;;;24.21;52.85;95443.84;5080086;28;20049;-30
2023/08/30 00:45:37;;;;;;;2.10;0.63;;;;;;;24.28;52.51;95443.19;5079831;28;20029;-30
2023/08/30 00:48:04;;;;;;;1.38;0.70;;;;;;;24.20;52.63;95436.81;5083028;28;20369;-29
2023/08/30 00:50:30;;;;;;;1.60;0.70;;;;;;;24.44;52.37;95438.53;5083572;28;20485;-30
2023/08/30 00:52:55;;;;;;;2.10;0.80;;;;;;;24.43;52.05;95439.81;5082346;28;20028;-29
2023/08/30 00:55:20;;;;;;;1.77;0.70;;;;;;;24.36;52.39;95441.22;5083589;28;20020;-30
2023/08/30 00:57:46;;;;;;;2.85;0.85;;;;;;;24.36;52.26;95438.44;5083620;28;20450;-29
2023/08/30 01:00:11;;;;;;;1.73;0.70;;;;;;;24.30;52.60;95443.41;5081777;28;20367;-30
2023/08/30 01:02:37;;;;;;;1.90;0.70;;;;;;;24.31;52.52;95442.88;5083528;28;20101;-29
2023/08/30 01:05:03;;;;;;;1.67;0.88;;;;;;;24.42;52.51;95441.84;5090278;28;20069;-30
2023/08/30 01:07:29;;;;;;;1.85;0.68;;;;;;;24.22;52.97;95450.88;5080312;28;20055;-30
2023/08/30 01:09:54;;;;;;;3.40;0.90;;;;;;;24.34;52.34;95446.59;5086589;28;20024;-30
2023/08/30 01:12:32;;;;;;;1.75;0.75;;;;;;;24.28;52.67;95443.19;5074772;28;20373;-30
2023/08/30 01:15:19;;;;;;;3.90;1.00;;;;;;;24.43;52.18;95437.78;5090894;28;20027;-31
2023/08/30 01:17:47;;;;;;;2.72;0.90;;;;;;;24.37;52.34;95445.47;5080073;28;20428;-29
2023/08/30 01:20:16;;;;;;;1.52;0.90;;;;;;;24.16;52.52;95439.94;5086806;28;20093;-30
2023/08/30 01:23:05;;;;;;;2.03;0.90;;;;;;;24.25;52.34;95455.34;5085954;28;20020;-30
2023/08/30 01:25:39;;;;;;;1.45;0.85;;;;;;;24.28;52.29;95454.28;5079946;28;20035;-30
2023/08/30 01:28:06;;;;;;;3.70;1.17;;;;;;;24.22;52.77;95446.13;5078083;28;20050;-30
2023/08/30 01:30:34;;;;;;;1.90;0.95;;;;;;;24.29;52.45;95453.00;5080142;28;20032;-30
2023/08/30 01:33:01;;;;;;;3.15;1.10;;;;;;;24.29;52.50;95455.78;5083570;28;20105;-30
2023/08/30 01:35:32;;;;;;;1.77;1.00;;;;;;;24.35;52.12;95448.06;5086393;28;20031;-30
2023/08/30 01:37:59;;;;;;;2.65;1.00;;;;;;;24.29;52.34;95450.22;5083446;28;20370;-30
2023/08/30 01:40:26;;;;;;;1.77;0.75;;;;;;;24.49;51.88;95457.78;5083309;28;20041;-31
2023/08/30 01:42:53;;;;;;;3.67;0.95;;;;;;;24.36;52.10;95449.53;5083042;28;20385;-30
2023/08/30 01:45:21;;;;;;;3.17;0.80;;;;;;;24.19;52.57;95440.88;5080779;28;20020;-30
2023/08/30 01:47:48;;;;;;;2.95;0.93;;;;;;;24.32;52.49;95443.59;5078758;28;20470;-30
2023/08/30 01:50:15;;;;;;;3.90;0.88;;;;;;;24.40;52.01;95446.44;5083222;28;20062;-30
2023/08/30 01:52:41;;;;;;;2.75;1.10;;;;;;;24.41;52.22;95439.59;5083046;28;20464;-30
2023/08/30 01:55:08;;;;;;;2.45;1.02;;;;;;;24.31;52.22;95447.66;5084752;28;20103;-30
2023/08/30 01:57:34;;;;;;;2.05;0.75;;;;;;;24.03;53.14;95445.53;5088524;28;20486;-30
2023/08/30 01:59:59;;;;;;;2.60;1.20;;;;;;;24.19;52.46;95438.09;5083195;28;20021;-30
2023/08/30 02:02:29;;;;;;;2.10;0.90;;;;;;;24.32;52.36;95446.38;5075533;28;20018;-30
2023/08/30 02:04:54;;;;;;;3.67;1.48;;;;;;;24.33;52.59;95434.75;5075838;28;20021;-30
2023/08/30 02:07:43;;;;;;;2.53;0.93;;;;;;;24.39;52.47;95439.41;5084226;28;20436;-30
2023/08/30 02:10:11;;;;;;;3.47;1.00;;;;;;;24.24;52.76;95437.25;5073667;28;20110;-30
2023/08/30 02:12:48;;;;;;;4.72;1.00;;;;;;;24.14;52.81;95438.97;5078520;28;20020;-30
2023/08/30 02:15:16;;;;;;;2.10;0.82;;;;;;;24.24;52.64;95437.97;5077767;28;20020;-30
2023/08/30 02:17:41;;;;;;;1.98;0.70;;;;;;;24.38;52.46;95446.22;5079025;28;20073;-30
2023/08/30 02:20:07;;;;;;;2.97;0.98;;;;;;;24.50;52.01;95442.63;5093476;28;20024;-29
2023/08/30 02:22:33;;;;;;;3.13;0.90;;;;;;;24.28;52.46;95440.44;5083011;28;20020;-30
2023/08/30 02:25:01;;;;;;;5.05;1.00;;;;;;;24.42;52.19;95439.06;5075276;28;20046;-30
2023/08/30 02:27:26;;;;;;;3.67;1.00;;;;;;;24.35;52.44;95442.53;5082954;28;20112;-30
2023/08/30 02:29:52;;;;;;;3.70;0.90;;;;;;;24.40;52.49;95438.13;5081644;28;20099;-30
2023/08/30 02:32:20;;;;;;;3.35;1.00;;;;;;;24.38;52.37;95435.88;5082579;28;20021;-30
2023/08/30 02:34:49;;;;;;;1.80;0.63;;;;;;;24.30;52.83;95438.59;5082856;28;20028;-30
2023/08/30 02:37:15;;;;;;;4.40;1.10;;;;;;;24.28;52.67;95437.66;5082522;28;20031;-30
2023/08/30 02:39:41;;;;;;;3.30;1.13;;;;;;;24.22;52.66;95432.28;5081738;28;20522;-30
2023/08/30 02:42:06;;;;;;;2.67;1.10;;;;;;;24.32;52.26;95438.06;5082388;28;20027;-30
2023/08/30 02:44:32;;;;;;;3.03;1.00;;;;;;;24.38;52.14;95429.59;5081484;28;20024;-30
2023/08/30 02:46:57;;;;;;;3.97;0.93;;;;;;;24.28;52.44;95427.31;5076499;28;20139;-29
2023/08/30 02:49:22;;;;;;;3.58;0.95;;;;;;;24.36;52.26;95432.19;5085321;28;20012;-30
2023/08/30 02:51:48;;;;;;;3.05;0.95;;;;;;;24.34;52.18;95430.72;5077081;28;20059;-30
2023/08/30 02:54:13;;;;;;;3.92;0.85;;;;;;;24.35;51.88;95423.13;5084659;28;20073;-29
2023/08/30 02:56:42;;;;;;;2.50;0.90;;;;;;;24.32;51.88;95427.00;5079353;28;20020;-31
2023/08/30 02:59:07;;;;;;;2.70;1.02;;;;;;;24.22;52.05;95423.94;5089433;28;20077;-30
2023/08/30 03:01:33;;;;;;;3.83;1.20;;;;;;;24.41;51.31;95425.75;5086309;28;20023;-30
2023/08/30 03:03:58;;;;;;;3.78;0.90;;;;;;;24.22;51.92;95426.72;5084655;28;20031;-30
2023/08/30 03:06:24;;;;;;;3.50;0.85;;;;;;;24.33;51.57;95432.00;5084267;28;20024;-30
2023/08/30 03:08:49;;;;;;;2.40;0.90;;;;;;;24.25;51.86;95422.84;5079137;28;20016;-30
2023/08/30 03:11:14;;;;;;;5.00;1.00;;;;;;;24.30;51.56;95421.25;5081985;28;20028;-30
2023/08/30 03:13:40;;;;;;;6.07;1.20;;;;;;;24.34;51.62;95424.41;5078361;28;20031;-30
2023/08/30 03:16:12;;;;;;;2.50;0.80;;;;;;;24.20;52.17;95426.50;5085248;28;20037;-30
2023/08/30 03:18:38;;;;;;;3.17;0.70;;;;;;;24.39;51.51;95420.00;5083974;28;20032;-31
2023/08/30 03:21:04;;;;;;;5.20;1.05;;;;;;;24.37;51.42;95420.53;5086088;28;20028;-30
2023/08/30 03:23:31;;;;;;;4.90;0.95;;;;;;;24.39;51.35;95420.00;5081935;28;20028;-31
2023/08/30 03:25:57;;;;;;;4.40;1.20;;;;;;;24.27;51.83;95425.09;5087957;28;20162;-31
2023/08/30 03:28:22;;;;;;;6.32;1.20;;;;;;;24.29;51.68;95428.81;5081604;28;20028;-29
2023/08/30 03:30:48;;;;;;;3.90;0.90;;;;;;;24.22;51.89;95423.19;5082005;28;20016;-30
2023/08/30 03:33:13;;;;;;;1.98;0.82;;;;;;;24.22;52.13;95425.94;5087106;28;20058;-30
2023/08/30 03:35:38;;;;;;;4.47;0.95;;;;;;;24.21;52.24;95430.00;5082707;28;20161;-30
2023/08/30 03:38:04;;;;;;;5.68;0.90;;;;;;;24.26;52.25;95424.34;5081184;28;20109;-30
2023/08/30 03:40:30;;;;;;;3.15;1.00;;;;;;;24.29;52.09;95422.53;5081157;28;20157;-30
2023/08/30 03:42:56;;;;;;;4.20;1.20;;;;;;;24.42;51.78;95410.63;5074277;28;20028;-29
2023/08/30 03:45:21;;;;;;;2.08;0.90;;;;;;;24.42;51.92;95418.94;5080932;28;20070;-30
2023/08/30 03:47:47;;;;;;;4.68;2.00;;;;;;;24.25;52.43;95422.84;5080772;28;20415;-31
2023/08/30 03:50:12;;;;;;;4.88;1.00;;;;;;;24.33;52.20;95423.69;5084272;28;20416;-30
2023/08/30 03:52:38;;;;;;;3.10;1.40;;;;;;;24.29;52.32;95422.53;5085225;28;20063;-30
2023/08/30 03:55:03;;;;;;;2.72;1.42;;;;;;;24.31;52.38;95428.28;5080952;28;20051;-30
2023/08/30 03:57:29;;;;;;;3.70;1.50;;;;;;;24.38;51.98;95430.34;5077369;28;20024;-30
2023/08/30 03:59:54;;;;;;;3.58;1.52;;;;;;;24.32;52.24;95432.53;5083088;28;20484;-30
2023/08/30 04:02:20;;;;;;;12.75;2.05;;;;;;;24.36;52.16;95426.66;5088553;28;20107;-29
2023/08/30 04:04:48;;;;;;;2.83;1.60;;;;;;;24.29;52.38;95430.84;5080564;28;20055;-30
2023/08/30 04:07:14;;;;;;;2.50;1.60;;;;;;;24.51;51.77;95437.84;5074352;28;20028;-30
2023/08/30 04:09:40;;;;;;;2.75;1.58;;;;;;;24.31;52.48;95442.13;5079712;28;20070;-30
2023/08/30 04:12:05;;;;;;;3.00;1.50;;;;;;;24.32;52.39;95449.91;5080104;28;20367;-30
2023/08/30 04:14:31;;;;;;;4.32;1.70;;;;;;;24.27;52.65;95441.72;5083287;28;20023;-30
2023/08/30 04:16:56;;;;;;;2.97;1.52;;;;;;;24.43;52.33;95446.09;5083978;28;20016;-30
2023/08/30 04:19:22;;;;;;;3.47;1.38;;;;;;;24.43;51.99;95445.34;5075427;28;20391;-30
2023/08/30 04:21:47;;;;;;;4.82;1.92;;;;;;;24.45;52.16;95445.56;5080381;28;20047;-30
2023/08/30 04:24:14;;;;;;;5.07;1.77;;;;;;;24.39;52.28;95447.72;5071590;28;20021;-29
2023/08/30 04:26:40;;;;;;;3.45;1.50;;;;;;;24.38;52.44;95446.97;5080392;28;20026;-30
2023/08/30 04:29:05;;;;;;;4.40;1.58;;;;;;;24.32;52.22;95457.47;5078102;28;20103;-30
2023/08/30 04:31:31;;;;;;;3.22;1.83;;;;;;;24.45;51.90;95451.84;5082749;28;20033;-30
2023/08/30 04:33:56;;;;;;;4.32;1.88;;;;;;;24.38;52.03;95446.97;5076520;28;20544;-30
2023/08/30 04:36:22;;;;;;;4.00;1.80;;;;;;;24.34;52.16;95452.13;5083841;28;20027;-30
2023/08/30 04:38:47;;;;;;;2.45;1.60;;;;;;;24.29;52.30;95447.47;5075271;28;20040;-30
2023/08/30 04:41:13;;;;;;;4.05;2.33;;;;;;;24.30;52.51;95455.22;5077803;28;20382;-31
2023/08/30 04:43:38;;;;;;;3.72;1.83;;;;;;;24.41;52.14;95451.44;5087490;28;20024;-30
2023/08/30 04:46:04;;;;;;;7.22;2.47;;;;;;;24.30;52.36;95454.50;5080277;28;20024;-30
2023/08/30 04:48:29;;;;;;;6.45;2.35;;;;;;;24.31;52.20;95453.19;5080334;28;20027;-30
2023/08/30 04:51:02;;;;;;;5.28;1.90;;;;;;;24.48;51.77;95445.19;5080626;28;20024;-30
2023/08/30 04:53:28;;;;;;;5.95;2.17;;;;;;;24.22;52.46;95450.88;5080255;28;20048;-30
2023/08/30 04:55:54;;;;;;;3.55;1.80;;;;;;;24.32;52.26;95443.59;5079739;28;20492;-30
2023/08/30 04:58:20;;;;;;;5.00;1.80;;;;;;;24.20;52.45;95448.66;5083236;28;20091;-30
2023/08/30 05:00:45;;;;;;;4.28;1.60;;;;;;;24.39;52.00;95456.78;5083599;28;20137;-30
2023/08/30 05:03:11;;;;;;;4.88;1.83;;;;;;;24.21;52.70;95449.41;5081159;28;20362;-30
2023/08/30 05:05:36;;;;;;;6.05;1.83;;;;;;;24.27;52.00;95459.06;5080138;28;20024;-30
2023/08/30 05:08:03;;;;;;;4.60;1.70;;;;;;;24.31;51.95;95459.50;5080643;28;20024;-30
2023/08/30 05:10:28;;;;;;;5.20;1.77;;;;;;;24.36;52.08;95452.31;5087183;28;20519;-30
2023/08/30 05:12:54;;;;;;;5.32;1.92;;;;;;;24.34;52.21;95454.91;5088772;28;20020;-30
2023/08/30 05:15:19;;;;;;;4.45;1.70;;;;;;;24.34;52.60;95463.22;5077886;28;20029;-30
2023/08/30 05:17:45;;;;;;;5.82;1.73;;;;;;;24.37;51.92;95455.81;5083362;28;20031;-30
2023/08/30 05:20:11;;;;;;;5.75;1.52;;;;;;;24.41;51.68;95459.75;5090871;28;20016;-30
2023/08/30 05:22:36;;;;;;;4.25;1.88;;;;;;;24.33;52.00;95461.72;5078407;28;20127;-31
2023/08/30 05:25:02;;;;;;;6.80;2.10;;;;;;;24.34;52.45;95463.22;5089042;28;20020;-30
2023/08/30 05:27:28;;;;;;;5.13;1.90;;;;;;;24.32;52.43;95460.22;5083707;28;20028;-30
2023/08/30 05:29:55;;;;;;;6.00;2.40;;;;;;;24.48;52.23;95461.81;5087090;28;20485;-30
2023/08/30 05:32:21;;;;;;;6.47;2.03;;;;;;;24.41;52.08;95468.06;5087112;28;20028;-29
2023/08/30 05:34:46;;;;;;;5.95;2.03;;;;;;;24.27;52.64;95466.66;5085866;28;20024;-30
2023/08/30 05:37:12;;;;;;;3.22;1.92;;;;;;;24.40;52.32;95477.66;5086717;28;20436;-30
2023/08/30 05:39:37;;;;;;;7.40;2.35;;;;;;;24.33;52.27;95481.13;5085461;28;20052;-30
2023/08/30 05:42:03;;;;;;;4.03;1.40;;;;;;;24.45;51.57;95481.59;5086511;28;20020;-30
2023/08/30 05:44:29;;;;;;;3.85;1.42;;;;;;;24.41;51.74;95481.19;5080636;28;20119;-30
2023/08/30 05:46:54;;;;;;;9.27;2.22;;;;;;;24.36;52.00;95484.84;5083893;28;20039;-30
2023/08/30 05:49:20;;;;;;;5.97;2.15;;;;;;;24.41;51.99;95483.94;5080199;28;20391;-30
2023/08/30 05:51:45;;;;;;;7.28;1.80;;;;;;;24.43;52.03;95492.47;5078735;28;20027;-30
2023/08/30 05:54:11;;;;;;;4.30;1.63;;;;;;;24.43;51.92;95493.22;5090618;28;20025;-30
2023/08/30 05:56:37;;;;;;;7.70;1.75;;;;;;;24.27;52.58;95486.03;5088837;28;20016;-30
2023/08/30 05:59:02;;;;;;;2.60;1.35;;;;;;;24.36;52.19;95493.16;5084527;28;20107;-30
2023/08/30 06:01:27;;;;;;;5.40;1.88;;;;;;;24.36;52.18;95493.16;5076135;28;20390;-30
2023/08/30 06:03:54;;;;;;;6.78;1.60;;;;;;;24.38;52.03;95496.84;5089961;28;20024;-30
2023/08/30 06:06:20;;;;;;;5.13;1.70;;;;;;;24.45;51.81;95490.66;5082985;28;20030;-30
2023/08/30 06:08:46;;;;;;;4.45;1.45;;;;;;;24.37;52.18;95495.38;5083269;28;20019;-30
2023/08/30 06:11:11;;;;;;;7.57;1.42;;;;;;;24.44;51.86;95500.25;5075875;28;20452;-29
2023/08/30 06:13:37;;;;;;;4.95;1.50;;;;;;;24.39;51.98;95505.91;5083140;28;20024;-31
2023/08/30 06:16:02;;;;;;;4.18;1.38;;;;;;;24.45;52.03;95514.84;5081705;28;20385;-30
2023/08/30 06:18:32;;;;;;;5.10;1.40;;;;;;;24.44;51.76;95516.88;5083624;28;20016;-30
2023/08/30 06:20:57;;;;;;;7.22;1.20;;;;;;;24.28;52.02;95509.69;5079604;28;20023;-30
2023/08/30 06:23:23;;;;;;;2.65;1.17;;;;;;;24.22;52.17;95518.16;5084889;28;20032;-30
2023/08/30 06:25:56;;;;;;;4.35;1.30;;;;;;;24.36;52.16;95518.81;5083300;28;20028;-30
2023/08/30 06:28:21;;;;;;;5.00;1.33;;;;;;;24.34;52.42;95529.72;5075223;28;20028;-30
2023/08/30 06:30:47;;;;;;;4.32;1.40;;;;;;;24.39;52.21;95525.31;5078350;28;20531;-30
2023/08/30 06:33:12;;;;;;;3.70;1.35;;;;;;;24.39;52.23;95520.50;5080019;28;20113;-30
2023/08/30 06:35:42;;;;;;;3.40;1.23;;;;;;;24.42;52.37;95527.75;5082860;28;20025;-30
2023/08/30 06:38:08;;;;;;;4.18;1.25;;;;;;;24.48;52.24;95528.34;5081543;28;20389;-31
2023/08/30 06:40:33;;;;;;;5.18;1.20;;;;;;;24.43;52.55;95536.81;5082762;28;20041;-30
2023/08/30 06:42:59;;;;;;;10.23;1.50;;;;;;;24.40;52.65;95537.88;5083285;28;20066;-30
2023/08/30 06:45:25;;;;;;;5.93;1.90;;;;;;;24.45;52.73;95540.53;5082554;28;20492;-29
2023/08/30 06:47:51;;;;;;;2.17;1.10;;;;;;;24.32;53.17;95546.13;5081988;28;20026;-30
2023/08/30 06:50:17;;;;;;;5.95;1.30;;;;;;;24.38;53.11;95548.75;5082224;28;20016;-30
2023/08/30 06:52:42;;;;;;;3.53;1.50;;;;;;;24.15;53.39;95548.50;5081525;28;20024;-30
2023/08/30 06:55:08;;;;;;;7.30;1.55;;;;;;;24.48;52.71;95547.75;5083869;28;20024;-30
2023/08/30 06:57:33;;;;;;;3.47;1.27;;;;;;;24.19;53.65;95554.47;5085590;28;20016;-30
2023/08/30 07:00:04;;;;;;;3.58;1.45;;;;;;;24.30;53.23;95546.66;5083765;28;20028;-30
2023/08/30 07:02:31;;;;;;;3.22;1.25;;;;;;;24.30;53.14;95560.53;5078316;28;20132;-30
2023/08/30 07:04:56;;;;;;;4.28;1.35;;;;;;;24.33;52.96;95550.41;5077208;28;20091;-29
2023/08/30 07:07:21;;;;;;;4.05;1.25;;;;;;;24.27;53.29;95560.84;5082278;28;20562;-30
2023/08/30 07:09:47;;;;;;;5.88;1.48;;;;;;;24.38;53.09;95563.38;5084777;28;20022;-30
2023/08/30 07:12:12;;;;;;;2.92;1.50;;;;;;;24.39;52.97;95558.56;5076808;28;20029;-30
2023/08/30 07:14:38;;;;;;;5.30;1.50;;;;;;;24.47;52.57;95560.16;5085113;28;20020;-31
2023/08/30 07:17:03;;;;;;;2.80;1.27;;;;;;;24.47;52.90;95554.59;5077938;28;20024;-31
2023/08/30 07:19:29;;;;;;;3.35;1.60;;;;;;;24.30;53.33;95568.09;5090393;28;20035;-30
2023/08/30 07:21:54;;;;;;;5.40;1.50;;;;;;;24.41;53.06;95570.59;5084475;28;20384;-30
2023/08/30 07:24:21;;;;;;;6.53;1.30;;;;;;;24.40;52.93;95577.44;5084303;28;20453;-30
2023/08/30 07:26:47;;;;;;;4.72;1.10;;;;;;;24.50;52.86;95572.91;5081897;28;20024;-30
2023/08/30 07:29:12;;;;;;;4.32;1.05;;;;;;;24.60;52.88;95584.28;5080628;28;20020;-30
2023/08/30 07:31:38;;;;;;;3.97;1.27;;;;;;;24.40;53.33;95579.44;5081379;28;20020;-30
2023/08/30 07:34:03;;;;;;;4.70;1.10;;;;;;;24.48;53.23;95569.91;5077920;28;20047;-30
2023/08/30 07:36:30;;;;;;;7.18;1.15;;;;;;;24.59;53.24;95578.00;5077273;28;20381;-31
2023/08/30 07:38:55;;;;;;;3.85;1.33;;;;;;;24.57;53.35;95585.38;5081132;28;20016;-30
2023/08/30 07:41:21;;;;;;;4.97;1.27;;;;;;;24.66;53.05;95582.13;5080991;28;20393;-30
2023/08/30 07:43:46;;;;;;;3.92;1.17;;;;;;;24.66;53.24;95577.31;5081025;28;20024;-30
2023/08/30 07:46:12;;;;;;;4.57;1.13;;;;;;;24.61;53.32;95580.94;5080300;28;20381;-30
2023/08/30 07:48:37;;;;;;;4.68;1.00;;;;;;;24.55;53.45;95576.84;5080743;28;20409;-30
2023/08/30 07:51:02;;;;;;;2.72;0.77;;;;;;;24.72;52.92;95585.50;5083117;28;20032;-30
2023/08/30 07:53:28;;;;;;;1.77;0.80;;;;;;;24.62;53.28;95579.66;5078098;28;20111;-31
2023/08/30 07:55:53;;;;;;;5.13;1.23;;;;;;;24.74;53.43;95588.47;5080878;28;20029;-30
2023/08/30 07:58:19;;;;;;;5.03;1.13;;;;;;;24.66;53.73;95582.88;5081160;28;20074;-30
2023/08/30 08:00:44;;;;;;;2.85;0.85;;;;;;;24.73;54.00;95592.53;5079844;28;20016;-30
2023/08/30 08:03:10;;;;;;;3.75;1.02;;;;;;;24.78;53.69;95597.19;5082649;28;20028;-31
2023/08/30 08:05:36;;;;;;;2.78;0.82;;;;;;;24.79;53.69;95597.94;5080252;28;20100;-30
2023/08/30 08:08:02;;;;;;;5.95;0.82;;;;;;;24.69;53.87;95592.13;5080746;28;20020;-30
2023/08/30 08:10:31;;;;;;;3.22;1.00;;;;;;;24.69;53.32;95592.13;5076063;28;20462;-30
2023/08/30 08:12:57;;;;;;;2.85;0.88;;;;;;;24.77;53.32;95589.41;5077287;28;20029;-30
2023/08/30 08:15:22;;;;;;;2.67;0.90;;;;;;;24.79;53.28;95603.50;5088206;28;20020;-30
2023/08/30 08:17:49;;;;;;;2.83;1.23;;;;;;;24.77;53.18;95601.25;5077660;28;20016;-30
2023/08/30 08:20:14;;;;;;;5.72;0.98;;;;;;;24.74;53.35;95602.31;5083903;28;20070;-30
2023/08/30 08:22:40;;;;;;;5.97;1.20;;;;;;;24.73;52.99;95598.06;5083133;28;20416;-30
2023/08/30 08:25:09;;;;;;;3.10;0.95;;;;;;;24.85;52.83;95598.56;5078252;28;20057;-31
2023/08/30 08:27:35;;;;;;;6.18;1.08;;;;;;;24.80;52.66;95602.22;5087699;28;20453;-30
2023/08/30 08:30:01;;;;;;;1.40;0.80;;;;;;;24.80;52.68;95597.41;5077566;28;20019;-30
2023/08/30 08:32:26;;;;;;;3.10;0.95;;;;;;;24.68;52.54;95593.41;5076105;28;20373;-30
2023/08/30 08:34:52;;;;;;;7.00;1.00;;;;;;;24.79;52.60;95595.16;5081003;28;20027;-30
2023/08/30 08:37:17;;;;;;;6.13;0.88;;;;;;;24.84;52.22;95599.84;5080031;28;20100;-30
2023/08/30 08:39:45;;;;;;;4.47;0.98;;;;;;;24.81;51.89;95600.94;5080230;28;20028;-30
2023/08/30 08:42:11;;;;;;;4.63;1.50;;;;;;;24.86;51.71;95605.56;5079374;28;20024;-30
2023/08/30 08:44:39;;;;;;;4.40;0.95;;;;;;;24.84;51.66;95599.84;5086360;28;20024;-30
2023/08/30 08:47:04;;;;;;;3.58;0.90;;;;;;;24.94;51.20;95607.19;5082669;28;20073;-30
2023/08/30 08:49:31;;;;;;;3.30;1.02;;;;;;;24.94;51.79;95603.66;5090896;28;20024;-30
2023/08/30 08:51:57;;;;;;;2.58;0.85;;;;;;;24.94;52.06;95611.97;5081722;28;20037;-30
2023/08/30 08:54:23;;;;;;;2.40;1.00;;;;;;;25.07;52.39;95606.34;5089885;28;20020;-31
2023/08/30 08:56:49;;;;;;;4.45;0.95;;;;;;;25.13;52.67;95600.66;5082669;28;20543;-30
2023/08/30 08:59:15;;;;;;;2.60;0.77;;;;;;;25.20;52.39;95609.06;5082178;28;20021;-30
2023/08/30 09:01:40;;;;;;;2.88;0.90;;;;;;;25.19;53.08;95607.56;5085044;28;20107;-30
2023/08/30 09:04:08;;;;;;;4.03;0.93;;;;;;;25.08;52.88;95610.63;5086529;28;20470;-30
2023/08/30 09:06:35;;;;;;;4.22;1.17;;;;;;;25.21;52.45;95616.09;5090631;28;20024;-30
2023/08/30 09:09:03;;;;;;;3.95;1.15;;;;;;;25.18;52.52;95619.94;5082752;28;20502;-31
2023/08/30 09:11:29;;;;;;;2.65;1.20;;;;;;;25.18;52.33;95608.09;5087175;28;20024;-30
2023/08/30 09:13:54;;;;;;;4.95;1.15;;;;;;;25.18;51.63;95619.19;5086481;28;20035;-30
2023/08/30 09:16:20;;;;;;;3.30;1.17;;;;;;;25.07;52.37;95625.03;5086740;28;20031;-30
2023/08/30 09:19:03;;;;;;;4.47;1.25;;;;;;;25.26;51.64;95609.63;5086407;28;20021;-30
2023/08/30 09:21:31;;;;;;;4.00;1.02;;;;;;;25.29;51.16;95613.38;5086345;28;20028;-30
2023/08/30 09:24:06;;;;;;;3.53;0.75;;;;;;;25.11;51.71;95620.63;5086542;28;20024;-30
2023/08/30 09:26:33;;;;;;;3.67;0.70;;;;;;;25.19;51.63;95615.88;5086901;28;20032;-30
2023/08/30 09:29:05;;;;;;;2.00;0.80;;;;;;;25.17;51.46;95624.00;5084062;28;20023;-30
2023/08/30 09:31:37;;;;;;;3.22;1.00;;;;;;;25.26;51.72;95615.19;5081809;28;20056;-30
2023/08/30 09:34:04;;;;;;;3.77;0.90;;;;;;;25.39;51.31;95619.91;5083616;28;20028;-31
2023/08/30 09:36:42;;;;;;;2.80;0.98;;;;;;;25.23;52.08;95623.84;5089749;28;20016;-30
2023/08/30 09:39:14;;;;;;;2.17;0.77;;;;;;;25.43;51.70;95617.53;5083036;28;20040;-30
2023/08/30 09:41:43;;;;;;;1.85;0.70;;;;;;;25.55;50.68;95617.97;5081895;28;20017;-30
2023/08/30 09:44:16;;;;;;;3.03;0.75;;;;;;;25.31;50.81;95608.03;5086881;28;20025;-30
2023/08/30 09:46:43;;;;;;;2.70;0.70;;;;;;;25.29;51.05;95616.13;5085944;28;20023;-30
2023/08/30 09:49:09;;;;;;;4.22;0.90;;;;;;;25.28;51.21;95618.16;5088838;28;20016;-30
2023/08/30 09:51:37;;;;;;;4.13;0.98;;;;;;;25.38;51.06;95619.16;5089477;28;20409;-30
2023/08/30 09:54:05;;;;;;;4.80;1.00;;;;;;;25.42;50.20;95618.81;5086478;28;20418;-30
2023/08/30 09:56:32;;;;;;;3.70;0.93;;;;;;;25.39;50.19;95617.88;5087651;28;20542;-30
2023/08/30 09:58:59;;;;;;;3.20;1.45;;;;;;;25.34;50.48;95624.34;5085541;28;20054;-30
2023/08/30 10:01:28;;;;;;;4.13;0.68;;;;;;;25.33;51.28;95622.09;5083078;28;20118;-30
2023/08/30 10:03:56;;;;;;;3.88;1.00;;;;;;;25.52;50.33;95619.06;5082900;28;20029;-30
2023/08/30 10:06:24;;;;;;;2.60;0.85;;;;;;;25.35;50.58;95617.47;5092139;28;20032;-30
2023/08/30 10:08:53;;;;;;;2.20;0.90;;;;;;;25.40;50.26;95622.16;5086209;28;20008;-30
2023/08/30 10:11:21;;;;;;;3.42;1.00;;;;;;;25.42;50.08;95616.78;5077343;28;20355;-30
2023/08/30 10:13:48;;;;;;;2.50;1.02;;;;;;;25.46;49.56;95621.25;5083414;28;20029;-30
2023/08/30 10:16:22;;;;;;;6.57;1.23;;;;;;;25.48;50.43;95613.09;5083105;28;20027;-30
2023/08/30 10:18:52;;;;;;;7.68;2.05;;;;;;;25.36;51.93;95623.75;5082618;28;20025;-30
2023/08/30 10:21:19;;;;;;;7.53;1.38;;;;;;;25.45;52.44;95630.88;5075150;28;20485;-30
2023/08/30 10:23:46;;;;;;;11.23;2.15;;;;;;;25.36;53.29;95638.38;5083194;28;20031;-30
2023/08/30 10:26:14;;;;;;;5.40;1.58;;;;;;;25.31;54.48;95639.28;5081640;28;20474;-31
2023/08/30 10:28:41;;;;;;;7.25;1.70;;;;;;;25.18;55.62;95631.03;5083237;28;20066;-31
2023/08/30 10:31:08;;;;;;;7.30;1.58;;;;;;;25.22;55.43;95639.75;5073848;28;20119;-30
2023/08/30 10:33:47;;;;;;;6.53;1.27;;;;;;;25.23;55.56;95629.41;5089709;28;20571;-30
2023/08/30 10:36:12;;;;;;;4.55;1.90;;;;;;;25.29;55.30;95630.75;5082627;28;20025;-30
2023/08/30 10:38:40;;;;;;;4.78;1.38;;;;;;;25.25;55.69;95624.81;5082381;28;20462;-30
2023/08/30 10:41:09;;;;;;;5.88;1.70;;;;;;;25.24;55.77;95628.88;5085425;28;20051;-30
2023/08/30 10:43:37;;;;;;;5.22;1.10;;;;;;;25.31;55.49;95617.09;5085813;28;20016;-30
2023/08/30 10:46:06;;;;;;;3.40;1.35;;;;;;;25.11;56.41;95617.84;5082566;28;20099;-32
2023/08/30 10:48:39;;;;;;;7.18;1.30;;;;;;;25.15;55.75;95621.03;5082546;28;20025;-30
2023/08/30 10:51:19;;;;;;;4.38;1.02;;;;;;;25.26;55.37;95628.31;5082488;28;20389;-30
2023/08/30 10:53:58;;;;;;;4.97;1.58;;;;;;;25.24;55.68;95628.88;5082548;28;20025;-30
2023/08/30 10:56:28;;;;;;;5.78;1.70;;;;;;;25.16;55.97;95624.53;5082607;28;20012;-30
2023/08/30 10:58:53;;;;;;;7.35;1.50;;;;;;;24.92;56.66;95629.13;5082096;28;20477;-30
2023/08/30 11:01:19;;;;;;;4.07;1.83;;;;;;;25.07;56.41;95631.31;5082079;28;20051;-30
2023/08/30 11:03:44;;;;;;;4.70;1.63;;;;;;;25.12;55.92;95622.09;5081869;28;20465;-30
2023/08/30 11:06:14;;;;;;;8.32;1.58;;;;;;;25.16;56.58;95627.31;5073260;28;20029;-30
2023/08/30 11:08:39;;;;;;;6.25;1.55;;;;;;;25.11;57.12;95622.66;5081590;28;20433;-29
2023/08/30 11:11:08;;;;;;;4.93;1.70;;;;;;;25.12;57.22;95618.59;5081632;28;20021;-30
2023/08/30 11:13:35;;;;;;;4.93;1.10;;;;;;;25.13;57.63;95629.16;5084684;28;20012;-30
2023/08/30 11:16:06;;;;;;;3.30;1.45;;;;;;;25.12;58.74;95622.09;5086005;28;20035;-30
2023/08/30 11:18:39;;;;;;;4.53;1.13;;;;;;;25.25;58.25;95624.81;5083806;28;20032;-30
2023/08/30 11:21:06;;;;;;;3.40;1.15;;;;;;;25.21;56.60;95624.41;5085873;28;20501;-30
2023/08/30 11:23:31;;;;;;;3.25;1.20;;;;;;;25.14;55.81;95619.53;5075743;28;20040;-30
2023/08/30 11:25:57;;;;;;;2.00;1.00;;;;;;;25.22;55.56;95636.97;5080707;28;20024;-30
2023/08/30 11:28:23;;;;;;;2.80;0.80;;;;;;;25.21;55.90;95632.00;5081500;28;20025;-30
2023/08/30 11:30:49;;;;;;;3.17;0.90;;;;;;;25.28;55.44;95623.72;5088562;28;20012;-30
2023/08/30 11:33:18;;;;;;;2.55;0.63;;;;;;;25.37;54.68;95622.47;5087218;28;20480;-30